Hanamaki Airport
RJSI : now visible

Airfield :











YOU CAN JOIN US ON...

 
LOGIN :

Register | Disclaimer

   EN    FR    IT 

 









Legend :    VFR   Marginal VFR   IFR   Intensive IFR   Very Intensive IFR
Visi :
Ceiling :
>= 8 km
>= 3000ft
5 to 8 km
1000 to 3000 ft
1500m to 5 km
500 to 1000 ft
800 to 1500m
200 to 500 ft
< 800m
< 200 ft
Symbols :   Thunderstorms  Fog  Heavy snow  Heavy precipitations  Wind > 20 kt






- Airport Elevation : 297 ft
- IATA code : HNA


RJSI - Hanamaki

CURRENT METAR :
  • 250600Z 12003KT 060V170 9999 -SHRA FEW006 SCT010 BKN040 23/20 Q1005

EXPIRED METARs :
  • 250516Z 15005KT 9999 -SHRA FEW002 BKN010 BKN050 23/21 Q1005 RMK 1ST002 5ST010 6CU050 A2970
  • 250500Z 18005KT 9999 -SHRA FEW002 BKN007 BKN050 22/21 Q1006
  • 250426Z 22004KT 190V270 6000 -SHRA FEW005 BKN007 BKN020 22/21 Q1006 RMK 1ST005 5ST007 6CU020 A2971
  • 250400Z 18005KT 9999 -SHRA FEW006 BKN050 BKN080 22/21 Q1005
  • 250300Z 19006KT 9999 FEW006 SCT010 BKN050 22/20 Q1006
  • 250224Z 18008KT 9999 -SHRA FEW004 BKN006 BKN050 21/20 Q1006 RMK 1ST004 5ST006 6CU050 A2971
  • 250200Z 16008KT 9999 -SHRA FEW008 SCT030 BKN050 22/20 Q1006

TAF TAF RJSI
Valid from the 25 at 06:00 until the 26 at 12:00 UTC


250506Z 2506/2612 24006KT 9999 FEW020
TEMPO 2506/2509 FEW005 BKN008
BECMG 2521/2600 30012KT
RJJJ FIR / Asia



MET'MAP, your aeronautical weather chart ! - Copyright ORBIFLY December 2007 - Disclaimer

ORBIFLY MET'MAP TEAM :

Programming & Development : Alexandra Zaïnal
Original concept : Baudouin d'Aumeries
Technical & hardware support : Manuel Goepfert
Assistance : Marc-Olivier Méhu




SOURCES & CREDITS :

   NOAA       Earth
Advisory